Forside
METAR-TAF:

METAR-TAF

Lufthavne :

Marshalltown Municipal Airport

Marshalltown, Iowa, USA

Breddekreds: 42-06-38N, længdekreds: 092-54-58W, højde: 296 m

Aktuelle vejr

Denne rapport blev lavet for 25 minutter siden, kl. 09:53 UTC
Vind 13 kt fra nord
Temperatur 8°C
Fugtighed 93%
Tryk 1017 hPa
Sigt: 16.1 km
Overskyet i en højde af 700 ft

METAR: KMIW 230953Z AUTO 35013KT 10SM OVC007 08/07 A3004 RMK AO2 SLP172 T00780072

Tid: 05:18 (10:18 UTC)


TAF: fraværende

Vejrobservationer og prognoser fra mere end 4000 lufthavne (METAR og TAF).

De gule og røde prikker repræsenterer de meteorologiske stationer.

Flyt musen over at se navnet på stationen.

Så klik over at se vejr observationer og prognoser.

At skifte det kort: Klik på de grønne knapper med et sort kors for at zoome ind; på den grønne knap med en bindestreg for at zoome ud; eller på de grønne pile for tilstødende kort.


METAR-TAF: